Wild Boar Gully, Santa Catalina Island Weather observations

Data are for 10 minute period ending at time listed.
 Day   Time   Solar   Ave.   Ave.  Ave.  Vector    Max.   Stn.    Total
  of    of     Rad.   Air    Rel.  Wind   Wind     Wind   Baro.  Precip.
Year   Day            Temp.  Hum.  Speed  Dir.     Gust   Pres.         
2016   (PST)   W/m2    F      %     mph   deg.      mph    mb.     in.  
------------------------------------------------------------------------
 338    0:00    0.0    56   27.3    25     38.9    36.4    999.0   0.00  
 338    0:10    0.0    56   29.2    24     38.3    34.0    999.0   0.00  
 338    0:20    0.0    56   28.6    21     34.0    29.2    999.0   0.00  
 338    0:30    0.0    56   29.0    21     37.9    26.8    999.0   0.00  
 338    0:40    0.0    56   29.1    22     37.7    32.2    999.0   0.00  
 338    0:50    0.0    56   29.0    22     40.8    30.4    999.0   0.00  
 338    1:00    0.0    56   29.2    22     38.6    32.2    999.0   0.00  
 338    1:10    0.0    56   29.7    22     35.3    27.4    999.0   0.00  
 338    1:20    0.0    56   29.5    21     34.5    28.6    999.0   0.00  
 338    1:30    0.0    56   30.6    20     33.1    27.4    999.0   0.00  
 338    1:40    0.0    56   30.3    19     38.8    32.8    999.0   0.00  
 338    1:50    0.0    56   32.2    20     43.9    30.4    999.0   0.00  
 338    2:00    0.0    56   32.2    20     44.0    29.2    999.0   0.00  
 338    2:10    0.0    56   31.4    18     43.1    25.6    999.0   0.00  
 338    2:20    0.0    56   31.7    16     38.7    21.5    999.0   0.00  
 338    2:30    0.0    56   33.3    17     36.9    22.1    999.0   0.00  
 338    2:40    0.0    55   33.7    15     36.5    19.7    999.0   0.00  
 338    2:50    0.0    55   34.4    16     38.7    21.5    999.0   0.00  
 338    3:00    0.0    55   33.5    15     38.5    20.9    999.0   0.00  
 338    3:10    0.0    55   33.9    14     40.4    18.5    999.0   0.00  
 338    3:20    0.0    55   33.0    16     39.0    19.7    999.0   0.00  
 338    3:30    0.0    55   33.9    14     37.6    17.3    999.0   0.00  
 338    3:40    0.0    55   34.2    15     35.7    18.5    999.0   0.00  
 338    3:50    0.0    55   35.0    14     36.4    19.1    999.0   0.00  
 338    4:00    0.0    54   36.8    13     34.6    16.1    999.0   0.00  
 338    4:10    0.0    54   38.3    11     30.5    13.7    999.0   0.00  
 338    4:20    0.0    53   38.7    11     40.9    12.5    999.0   0.00  
 338    4:30    0.0    52   40.3    11     38.0    13.7    999.0   0.00  
 338    4:40    0.0    53   40.9    11     38.1    13.1    999.0   0.00  
 338    4:50    0.0    53   41.3    11     35.4    13.1    999.0   0.00  
 338    5:00    0.0    52   41.4    10     35.0    11.9    999.0   0.00  
 338    5:10    0.0    52   41.1    10     35.0    11.9    999.0   0.00  
 338    5:20    0.0    52   41.2     9     33.7    11.3    999.0   0.00  
 338    5:30    0.0    52   41.8     8     36.9    10.8    999.0   0.00  
 338    5:40    0.0    52   42.2     8     39.1     9.6    999.0   0.00  
 338    5:50    0.0    50   45.2     6     28.7     7.8    999.0   0.00  
 338    6:00    0.0    50   45.8     8     20.5    10.8    999.0   0.00  
 338    6:10    0.0    50   44.1     6     25.3     9.0    999.0   0.00  
 338    6:20    0.0    50   44.2     7     24.0    10.2    999.0   0.00  
 338    6:30    0.0    50   42.6     8     21.4     9.6    999.0   0.00  
 338    6:40    0.0    50   43.5     6     32.2     8.4    999.0   0.00  
 338    6:50    5.0    50   42.1     6     32.8     8.4    999.0   0.00  
 338    7:00    8.0    50   41.9     6     29.6     8.4    999.0   0.00  
 338    7:10   22.0    50   42.0     5     30.1     7.8    999.0   0.00  
 338    7:20   43.0    52   39.2     3     38.8     6.0    999.0   0.00  
 338    7:30   70.0    56   29.9     4     64.0     6.6    999.0   0.00  
 338    7:40   95.0    57   28.3     1     76.3     1.2    999.0   0.00  
 338    7:50  119.0    57   27.2     1    314.1     0.6    999.0   0.00  
 338    8:00  143.0    58   28.6     1    224.9     0.6    999.0   0.00  
 338    8:10  167.0    59   27.6     1     79.8     0.6    999.0   0.00  
 338    8:20  189.0    58   23.8     2    248.9     4.2    999.0   0.00  
 338    8:30  212.0    58   26.4     4    255.5     6.6    999.0   0.00  
 338    8:40  235.0    58   25.7     7    273.6     9.0    999.0   0.00  
 338    8:50  257.0    58   23.9     8    275.6    11.3    999.0   0.00  
 338    9:00  279.0    59   20.9     8    277.0    11.3    999.0   0.00  
 338    9:10  300.0    59   19.8     7    263.6    10.8    999.0   0.00  
 338    9:20  999.0   999  999.0   999    999.0   999.0    999.0 999.00  
 338    9:30  999.0   999  999.0   999    999.0   999.0    999.0 999.00  
 338    9:40  999.0   999  999.0   999    999.0   999.0    999.0 999.00  
 338    9:50  999.0   999  999.0   999    999.0   999.0    999.0 999.00  
 338   10:00  999.0   999  999.0   999    999.0   999.0    999.0 999.00  
 338   10:10  999.0   999  999.0   999    999.0   999.0    999.0 999.00  
 338   10:20  999.0   999  999.0   999    999.0   999.0    999.0 999.00  
 338   10:30  999.0   999  999.0   999    999.0   999.0    999.0 999.00  
 338   10:40  999.0   999  999.0   999    999.0   999.0    999.0 999.00  
 338   10:50  999.0   999  999.0   999    999.0   999.0    999.0 999.00  
 338   11:00  999.0   999  999.0   999    999.0   999.0    999.0 999.00  
 338   11:10  999.0   999  999.0   999    999.0   999.0    999.0 999.00  
 338   11:20  999.0   999  999.0   999    999.0   999.0    999.0 999.00  
 338   11:30  999.0   999  999.0   999    999.0   999.0    999.0 999.00  
 338   11:40  999.0   999  999.0   999    999.0   999.0    999.0 999.00  
 338   11:50  999.0   999  999.0   999    999.0   999.0    999.0 999.00  
 338   12:00  999.0   999  999.0   999    999.0   999.0    999.0 999.00  
 338   12:10  999.0   999  999.0   999    999.0   999.0    999.0 999.00  
 338   12:20  999.0   999  999.0   999    999.0   999.0    999.0 999.00  
 338   12:30  999.0   999  999.0   999    999.0   999.0    999.0 999.00  
 338   12:40  999.0   999  999.0   999    999.0   999.0    999.0 999.00  
 338   12:50  999.0   999  999.0   999    999.0   999.0    999.0 999.00  
 338   13:00  999.0   999  999.0   999    999.0   999.0    999.0 999.00  
 338   13:10  999.0   999  999.0   999    999.0   999.0    999.0 999.00  
 338   13:20  999.0   999  999.0   999    999.0   999.0    999.0 999.00  
 338   13:30  999.0   999  999.0   999    999.0   999.0    999.0 999.00  
 338   13:40  999.0   999  999.0   999    999.0   999.0    999.0 999.00  
 338   13:50  380.0    65   14.0    10    274.5    13.7    999.0   0.00  
 338   14:00  364.0    66   15.9    10    268.8    14.9    999.0   0.00  
 338   14:10  347.0    65   13.8    10    277.6    14.3    999.0   0.00  
 338   14:20  329.0    65   15.6    10    278.3    13.1    999.0   0.00  
 338   14:30  309.0    66   13.9    11    276.3    13.1    999.0   0.00  
 338   14:40  289.0    67    9.9    10    282.4    13.7    999.0   0.00  
 338   14:50  268.0    67   13.6    10    273.9    14.9    999.0   0.00  
 338   15:00  246.0    67   13.7    11    282.9    16.1    999.0   0.00  
 338   15:10  224.0    66   11.3    11    279.1    14.9    999.0   0.00  
 338   15:20  201.0    66    9.1    11    295.7    16.7    999.0   0.00  
 338   15:30  178.0    66    8.4    10    307.9    14.9    999.0   0.00  
 338   15:40  154.0    66    8.8    10    304.7    14.3    999.0   0.00  
 338   15:50  132.0    66    9.3     9    331.4    14.3    999.0   0.00  
 338   16:00  109.0    65   10.4     8    344.3    14.3    999.0   0.00  
 338   16:10   82.0    65   10.3     8    347.5    14.9    999.0   0.00  
 338   16:20   53.0    64   11.7     7    359.2    11.3    999.0   0.00  
 338   16:30   32.0    65   10.4     9    318.6    18.5    999.0   0.00  
 338   16:40   16.0    63   13.0    13    300.5    18.5    999.0   0.00  
 338   16:50    6.0    62   27.3    14    297.2    20.3    999.0   0.00  
 338   17:00    3.0    61   36.3    15    307.8    20.3    999.0   0.00  
 338   17:10    0.0    61   32.2    16    307.6    22.1    999.0   0.00  
 338   17:20    0.0    59   45.8    15    304.2    20.3    999.0   0.00  
 338   17:30    0.0    59   44.7    14    327.4    19.7    999.0   0.00  
 338   17:40    0.0    59   45.1    15    334.2    20.3    999.0   0.00  
 338   17:50    0.0    59   43.2    18    334.0    25.6    999.0   0.00  
 338   18:00    0.0    59   40.4    16    339.2    23.9    999.0   0.00  
 338   18:10    0.0    59   44.5    12    353.5    20.3    999.0   0.00  
 338   18:20    0.0    59   39.1     9    358.5    16.7    999.0   0.00  
 338   18:30    0.0    60   32.3     6    357.7    11.9    999.0   0.00  
 338   18:40    0.0    60   35.0     4     44.3     8.4    999.0   0.00  
 338   18:50    0.0    59   38.8     8    118.9    10.2    999.0   0.00  
 338   19:00    0.0    61   31.9     3     96.3     9.0    999.0   0.00  
 338   19:10    0.0    59   42.9     3    184.4     6.0    999.0   0.00  
 338   19:20    0.0    57   46.4     2     86.3     3.6    999.0   0.00  
 338   19:30    0.0    56   44.2     2     26.8     4.2    999.0   0.00  
 338   19:40    0.0    55   47.9     2    120.1     3.6    999.0   0.00  
 338   19:50    0.0    58   45.8     3    120.8     9.0    999.0   0.00  
 338   20:00    0.0    63   20.6    10    328.2    14.3    999.0   0.00  
 338   20:10    0.0    62   22.3     4    332.8    11.3    999.0   0.00  
 338   20:20    0.0    59   41.7     4    289.0     7.2    999.0   0.00  
 338   20:30    0.0    58   41.0     7    349.3    15.5    999.0   0.00  
 338   20:40    0.0    61   27.5    13     15.3    19.7    999.0   0.00  

Return to Wild Boar Gully graphs page.


Western Regional Climate Center,wrcc@dri.edu